sensor_id;sensor_type;location;lat;lon;timestamp;temperature;humidity
37276;DHT22;23166;51.150;21.620;2022-12-29T00:01:18;1.80;98.30
37276;DHT22;23166;51.150;21.620;2022-12-29T00:03:45;1.80;97.50
37276;DHT22;23166;51.150;21.620;2022-12-29T00:06:11;1.80;99.60
37276;DHT22;23166;51.150;21.620;2022-12-29T00:08:37;1.80;99.20
37276;DHT22;23166;51.150;21.620;2022-12-29T00:11:17;1.90;99.70
37276;DHT22;23166;51.150;21.620;2022-12-29T00:13:41;1.90;99.80
37276;DHT22;23166;51.150;21.620;2022-12-29T00:16:25;1.90;98.40
37276;DHT22;23166;51.150;21.620;2022-12-29T00:18:52;1.90;97.60
37276;DHT22;23166;51.150;21.620;2022-12-29T00:21:19;1.90;96.20
37276;DHT22;23166;51.150;21.620;2022-12-29T00:24:04;1.90;98.00
37276;DHT22;23166;51.150;21.620;2022-12-29T00:26:36;1.90;97.40
37276;DHT22;23166;51.150;21.620;2022-12-29T00:29:20;1.80;95.70
37276;DHT22;23166;51.150;21.620;2022-12-29T00:32:06;1.80;97.50
37276;DHT22;23166;51.150;21.620;2022-12-29T00:34:51;1.80;96.40
37276;DHT22;23166;51.150;21.620;2022-12-29T00:37:41;1.70;98.50
37276;DHT22;23166;51.150;21.620;2022-12-29T00:40:23;1.70;97.90
37276;DHT22;23166;51.150;21.620;2022-12-29T00:43:07;1.60;99.60
37276;DHT22;23166;51.150;21.620;2022-12-29T00:45:52;1.60;98.50
37276;DHT22;23166;51.150;21.620;2022-12-29T00:48:18;1.60;98.00
37276;DHT22;23166;51.150;21.620;2022-12-29T00:51:02;1.60;99.60
37276;DHT22;23166;51.150;21.620;2022-12-29T00:53:29;1.60;99.10
37276;DHT22;23166;51.150;21.620;2022-12-29T00:55:55;1.60;99.40
37276;DHT22;23166;51.150;21.620;2022-12-29T00:58:21;1.60;98.10
37276;DHT22;23166;51.150;21.620;2022-12-29T01:00:47;1.60;99.90
37276;DHT22;23166;51.150;21.620;2022-12-29T01:03:13;1.60;99.40
37276;DHT22;23166;51.150;21.620;2022-12-29T01:05:39;1.60;99.20
37276;DHT22;23166;51.150;21.620;2022-12-29T01:08:06;1.60;99.90
37276;DHT22;23166;51.150;21.620;2022-12-29T01:10:32;1.60;99.90
37276;DHT22;23166;51.150;21.620;2022-12-29T01:12:58;1.60;99.40
37276;DHT22;23166;51.150;21.620;2022-12-29T01:15:24;1.60;99.20
37276;DHT22;23166;51.150;21.620;2022-12-29T01:17:50;1.60;99.50
37276;DHT22;23166;51.150;21.620;2022-12-29T01:20:16;1.50;99.90
37276;DHT22;23166;51.150;21.620;2022-12-29T01:22:42;1.50;99.60
37276;DHT22;23166;51.150;21.620;2022-12-29T01:25:09;1.50;99.90
37276;DHT22;23166;51.150;21.620;2022-12-29T01:27:35;1.50;99.90
37276;DHT22;23166;51.150;21.620;2022-12-29T01:30:01;1.40;99.90
37276;DHT22;23166;51.150;21.620;2022-12-29T01:32:27;1.40;99.90
37276;DHT22;23166;51.150;21.620;2022-12-29T01:34:53;1.30;99.90
37276;DHT22;23166;51.150;21.620;2022-12-29T01:37:19;1.30;99.90
37276;DHT22;23166;51.150;21.620;2022-12-29T01:39:46;1.40;99.90
37276;DHT22;23166;51.150;21.620;2022-12-29T01:42:22;1.30;99.90
37276;DHT22;23166;51.150;21.620;2022-12-29T01:47:26;1.30;99.90
37276;DHT22;23166;51.150;21.620;2022-12-29T01:49:56;1.30;99.90
37276;DHT22;23166;51.150;21.620;2022-12-29T01:52:24;1.30;99.90
37276;DHT22;23166;51.150;21.620;2022-12-29T01:54:51;1.30;99.90
37276;DHT22;23166;51.150;21.620;2022-12-29T01:57:20;1.30;99.90
37276;DHT22;23166;51.150;21.620;2022-12-29T01:59:48;1.20;99.90
37276;DHT22;23166;51.150;21.620;2022-12-29T02:02:14;1.20;99.90
37276;DHT22;23166;51.150;21.620;2022-12-29T02:04:40;1.20;99.90
37276;DHT22;23166;51.150;21.620;2022-12-29T02:07:10;1.20;99.90
37276;DHT22;23166;51.150;21.620;2022-12-29T02:09:37;1.20;99.90
37276;DHT22;23166;51.150;21.620;2022-12-29T02:12:03;1.20;99.90
37276;DHT22;23166;51.150;21.620;2022-12-29T02:14:29;1.20;99.90
37276;DHT22;23166;51.150;21.620;2022-12-29T02:22:19;1.30;99.90
37276;DHT22;23166;51.150;21.620;2022-12-29T02:32:53;1.30;99.90
37276;DHT22;23166;51.150;21.620;2022-12-29T02:38:03;1.40;99.90
37276;DHT22;23166;51.150;21.620;2022-12-29T02:40:30;1.40;99.90
37276;DHT22;23166;51.150;21.620;2022-12-29T02:43:08;1.40;99.90
37276;DHT22;23166;51.150;21.620;2022-12-29T02:45:36;1.40;99.90
37276;DHT22;23166;51.150;21.620;2022-12-29T02:48:46;1.40;99.90
37276;DHT22;23166;51.150;21.620;2022-12-29T02:53:03;1.40;99.50
37276;DHT22;23166;51.150;21.620;2022-12-29T02:55:29;1.50;99.90
37276;DHT22;23166;51.150;21.620;2022-12-29T03:00:43;1.50;98.50
37276;DHT22;23166;51.150;21.620;2022-12-29T03:03:15;1.50;99.90
37276;DHT22;23166;51.150;21.620;2022-12-29T03:24:30;1.70;98.70
37276;DHT22;23166;51.150;21.620;2022-12-29T03:27:02;1.80;97.90
37276;DHT22;23166;51.150;21.620;2022-12-29T03:29:25;1.90;97.60
37276;DHT22;23166;51.150;21.620;2022-12-29T03:31:53;1.90;95.80
37276;DHT22;23166;51.150;21.620;2022-12-29T03:34:20;2.00;95.10
37276;DHT22;23166;51.150;21.620;2022-12-29T03:36:52;2.00;96.70
37276;DHT22;23166;51.150;21.620;2022-12-29T03:39:18;2.00;95.60
37276;DHT22;23166;51.150;21.620;2022-12-29T03:41:45;2.10;94.00
37276;DHT22;23166;51.150;21.620;2022-12-29T03:44:12;2.10;94.10
37276;DHT22;23166;51.150;21.620;2022-12-29T03:46:39;2.10;93.40
37276;DHT22;23166;51.150;21.620;2022-12-29T03:49:05;2.20;94.20
37276;DHT22;23166;51.150;21.620;2022-12-29T03:51:31;2.20;93.20
37276;DHT22;23166;51.150;21.620;2022-12-29T03:53:57;2.20;94.20
37276;DHT22;23166;51.150;21.620;2022-12-29T03:56:23;2.30;92.90
37276;DHT22;23166;51.150;21.620;2022-12-29T03:58:49;2.30;92.60
37276;DHT22;23166;51.150;21.620;2022-12-29T04:01:15;2.30;92.60
37276;DHT22;23166;51.150;21.620;2022-12-29T04:03:41;2.40;96.00
37276;DHT22;23166;51.150;21.620;2022-12-29T04:06:08;2.40;90.90
37276;DHT22;23166;51.150;21.620;2022-12-29T04:08:34;2.40;88.20
37276;DHT22;23166;51.150;21.620;2022-12-29T04:11:00;2.40;92.60
37276;DHT22;23166;51.150;21.620;2022-12-29T04:13:26;2.40;92.00
37276;DHT22;23166;51.150;21.620;2022-12-29T04:15:52;2.40;92.40
37276;DHT22;23166;51.150;21.620;2022-12-29T04:18:18;2.40;92.00
37276;DHT22;23166;51.150;21.620;2022-12-29T04:20:44;2.40;89.40
37276;DHT22;23166;51.150;21.620;2022-12-29T04:23:30;2.50;86.10
37276;DHT22;23166;51.150;21.620;2022-12-29T04:25:56;2.50;91.20
37276;DHT22;23166;51.150;21.620;2022-12-29T04:28:22;2.50;93.30
37276;DHT22;23166;51.150;21.620;2022-12-29T04:30:48;2.50;90.90
37276;DHT22;23166;51.150;21.620;2022-12-29T04:33:15;2.50;92.30
37276;DHT22;23166;51.150;21.620;2022-12-29T04:35:41;2.50;95.40
37276;DHT22;23166;51.150;21.620;2022-12-29T04:38:07;2.50;96.70
37276;DHT22;23166;51.150;21.620;2022-12-29T04:40:33;2.40;97.80
37276;DHT22;23166;51.150;21.620;2022-12-29T04:43:00;2.40;98.90
37276;DHT22;23166;51.150;21.620;2022-12-29T04:45:26;2.30;99.20
37276;DHT22;23166;51.150;21.620;2022-12-29T04:47:52;2.20;99.90
37276;DHT22;23166;51.150;21.620;2022-12-29T04:50:18;2.20;99.60
37276;DHT22;23166;51.150;21.620;2022-12-29T04:52:44;2.10;99.90
37276;DHT22;23166;51.150;21.620;2022-12-29T04:55:11;2.10;99.90
37276;DHT22;23166;51.150;21.620;2022-12-29T04:57:37;2.10;99.90
37276;DHT22;23166;51.150;21.620;2022-12-29T05:00:03;2.10;99.90
37276;DHT22;23166;51.150;21.620;2022-12-29T05:02:30;2.10;99.50
37276;DHT22;23166;51.150;21.620;2022-12-29T05:04:56;2.00;99.20
37276;DHT22;23166;51.150;21.620;2022-12-29T05:07:22;2.10;98.30
37276;DHT22;23166;51.150;21.620;2022-12-29T05:09:48;2.00;96.70
37276;DHT22;23166;51.150;21.620;2022-12-29T05:12:14;2.00;96.20
37276;DHT22;23166;51.150;21.620;2022-12-29T05:14:40;2.00;95.40
37276;DHT22;23166;51.150;21.620;2022-12-29T05:17:06;2.00;97.70
37276;DHT22;23166;51.150;21.620;2022-12-29T05:19:32;2.00;96.80
37276;DHT22;23166;51.150;21.620;2022-12-29T05:21:59;2.00;93.60
37276;DHT22;23166;51.150;21.620;2022-12-29T05:24:27;2.00;96.20
37276;DHT22;23166;51.150;21.620;2022-12-29T05:39:02;2.00;98.20
37276;DHT22;23166;51.150;21.620;2022-12-29T05:41:28;2.00;99.00
37276;DHT22;23166;51.150;21.620;2022-12-29T05:43:55;1.90;98.40
37276;DHT22;23166;51.150;21.620;2022-12-29T05:46:21;1.90;98.50
37276;DHT22;23166;51.150;21.620;2022-12-29T05:48:47;1.90;98.70
37276;DHT22;23166;51.150;21.620;2022-12-29T05:51:14;1.90;98.80
37276;DHT22;23166;51.150;21.620;2022-12-29T05:53:40;2.00;99.70
37276;DHT22;23166;51.150;21.620;2022-12-29T05:56:07;2.00;99.90
37276;DHT22;23166;51.150;21.620;2022-12-29T05:58:33;2.00;99.30
37276;DHT22;23166;51.150;21.620;2022-12-29T06:00:59;1.90;99.90
37276;DHT22;23166;51.150;21.620;2022-12-29T06:03:26;1.90;98.70
37276;DHT22;23166;51.150;21.620;2022-12-29T06:05:52;1.90;98.90
37276;DHT22;23166;51.150;21.620;2022-12-29T06:08:19;2.00;99.90
37276;DHT22;23166;51.150;21.620;2022-12-29T06:10:45;2.00;99.50
37276;DHT22;23166;51.150;21.620;2022-12-29T06:13:11;2.00;99.20
37276;DHT22;23166;51.150;21.620;2022-12-29T06:15:38;2.00;99.40
37276;DHT22;23166;51.150;21.620;2022-12-29T06:18:04;2.00;98.10
37276;DHT22;23166;51.150;21.620;2022-12-29T06:20:30;2.00;96.50
37276;DHT22;23166;51.150;21.620;2022-12-29T06:22:57;2.00;97.20
37276;DHT22;23166;51.150;21.620;2022-12-29T06:25:23;2.00;96.20
37276;DHT22;23166;51.150;21.620;2022-12-29T06:27:49;2.00;96.80
37276;DHT22;23166;51.150;21.620;2022-12-29T06:30:16;2.00;95.90
37276;DHT22;23166;51.150;21.620;2022-12-29T06:32:43;2.10;95.70
37276;DHT22;23166;51.150;21.620;2022-12-29T06:35:10;2.10;97.60
37276;DHT22;23166;51.150;21.620;2022-12-29T06:37:36;2.10;97.20
37276;DHT22;23166;51.150;21.620;2022-12-29T06:40:03;2.10;96.30
37276;DHT22;23166;51.150;21.620;2022-12-29T06:42:29;2.10;94.50
37276;DHT22;23166;51.150;21.620;2022-12-29T06:44:56;2.10;95.20
37276;DHT22;23166;51.150;21.620;2022-12-29T06:47:24;2.20;93.40
37276;DHT22;23166;51.150;21.620;2022-12-29T06:49:50;2.20;90.40
37276;DHT22;23166;51.150;21.620;2022-12-29T06:52:17;2.20;91.80
37276;DHT22;23166;51.150;21.620;2022-12-29T06:54:43;2.30;91.30
37276;DHT22;23166;51.150;21.620;2022-12-29T06:57:10;2.30;92.00
37276;DHT22;23166;51.150;21.620;2022-12-29T06:59:37;2.30;90.60
37276;DHT22;23166;51.150;21.620;2022-12-29T07:02:03;2.30;93.40
37276;DHT22;23166;51.150;21.620;2022-12-29T07:04:29;2.30;93.90
37276;DHT22;23166;51.150;21.620;2022-12-29T07:06:56;2.30;93.30
37276;DHT22;23166;51.150;21.620;2022-12-29T07:09:22;2.40;92.50
37276;DHT22;23166;51.150;21.620;2022-12-29T07:11:48;2.40;94.40
37276;DHT22;23166;51.150;21.620;2022-12-29T07:14:15;2.40;92.20
37276;DHT22;23166;51.150;21.620;2022-12-29T07:16:41;2.40;88.60
37276;DHT22;23166;51.150;21.620;2022-12-29T07:19:08;2.40;85.20
37276;DHT22;23166;51.150;21.620;2022-12-29T07:21:34;2.40;91.50
37276;DHT22;23166;51.150;21.620;2022-12-29T07:24:01;2.50;86.90
37276;DHT22;23166;51.150;21.620;2022-12-29T07:26:27;2.50;90.50
37276;DHT22;23166;51.150;21.620;2022-12-29T07:28:53;2.50;90.50
37276;DHT22;23166;51.150;21.620;2022-12-29T07:31:23;2.60;84.20
37276;DHT22;23166;51.150;21.620;2022-12-29T07:33:50;2.60;86.70
37276;DHT22;23166;51.150;21.620;2022-12-29T07:36:16;2.60;89.40
37276;DHT22;23166;51.150;21.620;2022-12-29T07:38:45;2.60;87.00
37276;DHT22;23166;51.150;21.620;2022-12-29T07:41:15;2.70;88.00
37276;DHT22;23166;51.150;21.620;2022-12-29T07:43:42;2.70;84.10
37276;DHT22;23166;51.150;21.620;2022-12-29T07:46:08;2.70;86.30
37276;DHT22;23166;51.150;21.620;2022-12-29T07:48:35;2.80;84.60
37276;DHT22;23166;51.150;21.620;2022-12-29T07:51:02;2.80;79.70
37276;DHT22;23166;51.150;21.620;2022-12-29T07:53:28;2.90;76.60
37276;DHT22;23166;51.150;21.620;2022-12-29T07:55:56;2.90;77.80
37276;DHT22;23166;51.150;21.620;2022-12-29T07:58:26;2.90;72.20
37276;DHT22;23166;51.150;21.620;2022-12-29T08:00:59;2.90;72.50
37276;DHT22;23166;51.150;21.620;2022-12-29T08:03:27;2.90;81.50
37276;DHT22;23166;51.150;21.620;2022-12-29T08:05:53;2.90;71.10
37276;DHT22;23166;51.150;21.620;2022-12-29T08:08:20;2.90;73.70
37276;DHT22;23166;51.150;21.620;2022-12-29T08:10:50;2.90;79.80
37276;DHT22;23166;51.150;21.620;2022-12-29T08:13:21;2.90;84.70
37276;DHT22;23166;51.150;21.620;2022-12-29T08:15:52;2.90;74.50
37276;DHT22;23166;51.150;21.620;2022-12-29T08:18:23;2.80;91.70
37276;DHT22;23166;51.150;21.620;2022-12-29T08:20:55;2.80;87.60
37276;DHT22;23166;51.150;21.620;2022-12-29T08:23:30;2.80;75.50
37276;DHT22;23166;51.150;21.620;2022-12-29T08:25:59;2.80;87.10
37276;DHT22;23166;51.150;21.620;2022-12-29T08:28:27;2.90;87.50
37276;DHT22;23166;51.150;21.620;2022-12-29T08:30:56;2.90;78.90
37276;DHT22;23166;51.150;21.620;2022-12-29T08:33:22;3.00;85.10
37276;DHT22;23166;51.150;21.620;2022-12-29T08:36:04;3.10;81.00
37276;DHT22;23166;51.150;21.620;2022-12-29T08:38:31;3.20;81.40
37276;DHT22;23166;51.150;21.620;2022-12-29T08:40:59;3.40;79.10
37276;DHT22;23166;51.150;21.620;2022-12-29T08:43:27;3.60;67.10
37276;DHT22;23166;51.150;21.620;2022-12-29T08:45:54;3.80;72.90
37276;DHT22;23166;51.150;21.620;2022-12-29T08:48:20;3.90;68.90
37276;DHT22;23166;51.150;21.620;2022-12-29T08:50:48;4.00;61.20
37276;DHT22;23166;51.150;21.620;2022-12-29T08:53:16;4.20;48.50
37276;DHT22;23166;51.150;21.620;2022-12-29T08:55:46;4.30;60.40
37276;DHT22;23166;51.150;21.620;2022-12-29T08:58:13;4.40;20.90
37276;DHT22;23166;51.150;21.620;2022-12-29T09:00:41;4.50;15.10
37276;DHT22;23166;51.150;21.620;2022-12-29T09:03:07;4.50;22.00
37276;DHT22;23166;51.150;21.620;2022-12-29T09:05:34;4.50;11.50
37276;DHT22;23166;51.150;21.620;2022-12-29T09:08:00;4.50;21.30
37276;DHT22;23166;51.150;21.620;2022-12-29T09:10:27;4.50;11.30
37276;DHT22;23166;51.150;21.620;2022-12-29T09:12:54;4.60;18.20
37276;DHT22;23166;51.150;21.620;2022-12-29T09:15:21;4.70;5.60
37276;DHT22;23166;51.150;21.620;2022-12-29T09:17:47;4.80;8.00
37276;DHT22;23166;51.150;21.620;2022-12-29T09:20:16;4.80;18.00
37276;DHT22;23166;51.150;21.620;2022-12-29T09:22:44;4.80;1.00
37276;DHT22;23166;51.150;21.620;2022-12-29T09:25:11;4.90;30.00
37276;DHT22;23166;51.150;21.620;2022-12-29T09:27:37;5.00;5.10
37276;DHT22;23166;51.150;21.620;2022-12-29T09:30:06;5.10;1.00
37276;DHT22;23166;51.150;21.620;2022-12-29T09:32:33;5.10;1.50
37276;DHT22;23166;51.150;21.620;2022-12-29T09:35:00;5.20;1.00
37276;DHT22;23166;51.150;21.620;2022-12-29T09:37:26;5.30;1.00
37276;DHT22;23166;51.150;21.620;2022-12-29T09:39:53;5.30;34.40
37276;DHT22;23166;51.150;21.620;2022-12-29T09:47:36;5.40;13.30
37276;DHT22;23166;51.150;21.620;2022-12-29T09:50:27;5.50;32.20
37276;DHT22;23166;51.150;21.620;2022-12-29T09:55:51;5.70;24.30
37276;DHT22;23166;51.150;21.620;2022-12-29T09:58:52;5.90;29.20
37276;DHT22;23166;51.150;21.620;2022-12-29T10:01:34;6.00;18.70
37276;DHT22;23166;51.150;21.620;2022-12-29T10:04:01;6.30;1.00
37276;DHT22;23166;51.150;21.620;2022-12-29T10:06:45;6.60;1.00
37276;DHT22;23166;51.150;21.620;2022-12-29T10:09:41;6.80;1.00
37276;DHT22;23166;51.150;21.620;2022-12-29T10:23:43;7.70;1.00
37276;DHT22;23166;51.150;21.620;2022-12-29T10:26:14;7.80;99.90
37276;DHT22;23166;51.150;21.620;2022-12-29T10:31:33;7.80;1.00
37276;DHT22;23166;51.150;21.620;2022-12-29T10:34:03;7.80;1.00
37276;DHT22;23166;51.150;21.620;2022-12-29T10:36:39;7.80;1.00
37276;DHT22;23166;51.150;21.620;2022-12-29T10:41:42;7.70;1.00
37276;DHT22;23166;51.150;21.620;2022-12-29T10:44:11;7.70;1.00
37276;DHT22;23166;51.150;21.620;2022-12-29T10:46:38;7.70;1.00
37276;DHT22;23166;51.150;21.620;2022-12-29T10:49:06;7.60;1.00
37276;DHT22;23166;51.150;21.620;2022-12-29T10:51:39;7.70;1.00
37276;DHT22;23166;51.150;21.620;2022-12-29T10:54:16;7.70;1.00
37276;DHT22;23166;51.150;21.620;2022-12-29T10:56:51;7.70;1.00
37276;DHT22;23166;51.150;21.620;2022-12-29T10:59:24;7.70;1.00
37276;DHT22;23166;51.150;21.620;2022-12-29T11:07:41;7.70;1.00
37276;DHT22;23166;51.150;21.620;2022-12-29T11:13:15;7.80;99.90
37276;DHT22;23166;51.150;21.620;2022-12-29T11:15:39;7.80;1.00
37276;DHT22;23166;51.150;21.620;2022-12-29T11:20:57;7.90;99.90
37276;DHT22;23166;51.150;21.620;2022-12-29T11:23:41;7.90;99.90
37276;DHT22;23166;51.150;21.620;2022-12-29T11:28:46;8.00;99.90
37276;DHT22;23166;51.150;21.620;2022-12-29T11:31:17;8.00;1.00
37276;DHT22;23166;51.150;21.620;2022-12-29T11:33:44;8.00;1.00
37276;DHT22;23166;51.150;21.620;2022-12-29T11:36:23;8.00;1.00
37276;DHT22;23166;51.150;21.620;2022-12-29T11:38:54;8.00;1.00
37276;DHT22;23166;51.150;21.620;2022-12-29T11:41:29;8.00;1.00
37276;DHT22;23166;51.150;21.620;2022-12-29T11:43:59;7.90;99.90
37276;DHT22;23166;51.150;21.620;2022-12-29T11:46:29;7.90;1.00
37276;DHT22;23166;51.150;21.620;2022-12-29T11:48:58;7.80;99.90
37276;DHT22;23166;51.150;21.620;2022-12-29T11:51:29;7.80;1.00
37276;DHT22;23166;51.150;21.620;2022-12-29T11:53:58;7.70;99.90
37276;DHT22;23166;51.150;21.620;2022-12-29T11:56:40;7.70;1.00
37276;DHT22;23166;51.150;21.620;2022-12-29T12:01:45;7.60;1.00
37276;DHT22;23166;51.150;21.620;2022-12-29T12:04:15;7.60;1.00
37276;DHT22;23166;51.150;21.620;2022-12-29T12:06:49;7.60;1.00
37276;DHT22;23166;51.150;21.620;2022-12-29T12:09:32;7.60;1.00
37276;DHT22;23166;51.150;21.620;2022-12-29T12:11:59;7.50;1.00
37276;DHT22;23166;51.150;21.620;2022-12-29T12:14:41;7.50;99.90
37276;DHT22;23166;51.150;21.620;2022-12-29T12:17:16;7.50;1.00
37276;DHT22;23166;51.150;21.620;2022-12-29T12:19:57;7.60;1.00
37276;DHT22;23166;51.150;21.620;2022-12-29T12:22:27;7.50;1.00
37276;DHT22;23166;51.150;21.620;2022-12-29T12:27:31;7.60;1.00
37276;DHT22;23166;51.150;21.620;2022-12-29T12:32:46;7.60;1.00
37276;DHT22;23166;51.150;21.620;2022-12-29T12:35:14;7.70;1.00
37276;DHT22;23166;51.150;21.620;2022-12-29T12:37:49;7.70;1.00
37276;DHT22;23166;51.150;21.620;2022-12-29T12:49:25;7.60;1.00
37276;DHT22;23166;51.150;21.620;2022-12-29T12:52:03;7.50;1.00
37276;DHT22;23166;51.150;21.620;2022-12-29T12:54:35;7.30;1.00
37276;DHT22;23166;51.150;21.620;2022-12-29T12:57:11;7.30;1.00
37276;DHT22;23166;51.150;21.620;2022-12-29T12:59:46;7.20;1.00
37276;DHT22;23166;51.150;21.620;2022-12-29T13:02:28;7.10;1.00
37276;DHT22;23166;51.150;21.620;2022-12-29T13:10:35;7.30;1.00
37276;DHT22;23166;51.150;21.620;2022-12-29T13:16:09;7.20;9.40
37276;DHT22;23166;51.150;21.620;2022-12-29T13:21:34;7.10;8.00
37276;DHT22;23166;51.150;21.620;2022-12-29T13:24:15;7.10;12.80
37276;DHT22;23166;51.150;21.620;2022-12-29T13:26:59;7.00;20.00
37276;DHT22;23166;51.150;21.620;2022-12-29T13:38:12;6.90;17.90
37276;DHT22;23166;51.150;21.620;2022-12-29T13:40:45;6.80;16.40
37276;DHT22;23166;51.150;21.620;2022-12-29T13:43:13;6.70;23.10
37276;DHT22;23166;51.150;21.620;2022-12-29T13:45:43;6.60;2.80
37276;DHT22;23166;51.150;21.620;2022-12-29T13:48:17;6.50;5.00
37276;DHT22;23166;51.150;21.620;2022-12-29T13:50:52;6.50;1.00
37276;DHT22;23166;51.150;21.620;2022-12-29T13:55:53;6.30;33.30
37276;DHT22;23166;51.150;21.620;2022-12-29T13:58:30;6.20;43.20
37276;DHT22;23166;51.150;21.620;2022-12-29T14:03:56;5.90;60.10
37276;DHT22;23166;51.150;21.620;2022-12-29T14:06:30;5.80;52.80
37276;DHT22;23166;51.150;21.620;2022-12-29T14:09:03;5.70;73.60
37276;DHT22;23166;51.150;21.620;2022-12-29T14:11:36;5.60;69.20
37276;DHT22;23166;51.150;21.620;2022-12-29T14:17:10;5.50;76.60
37276;DHT22;23166;51.150;21.620;2022-12-29T14:19:39;5.50;71.30
37276;DHT22;23166;51.150;21.620;2022-12-29T14:22:07;5.50;81.20
37276;DHT22;23166;51.150;21.620;2022-12-29T14:24:48;5.50;77.20
37276;DHT22;23166;51.150;21.620;2022-12-29T14:29:46;5.60;62.50
37276;DHT22;23166;51.150;21.620;2022-12-29T14:37:47;5.70;60.80
37276;DHT22;23166;51.150;21.620;2022-12-29T14:40:19;5.70;72.40
37276;DHT22;23166;51.150;21.620;2022-12-29T14:42:47;5.70;62.80
37276;DHT22;23166;51.150;21.620;2022-12-29T14:47:46;5.70;56.10
37276;DHT22;23166;51.150;21.620;2022-12-29T14:52:47;5.60;54.20
37276;DHT22;23166;51.150;21.620;2022-12-29T14:57:50;5.60;59.90
37276;DHT22;23166;51.150;21.620;2022-12-29T15:00:32;5.60;63.80
37276;DHT22;23166;51.150;21.620;2022-12-29T15:03:08;5.60;59.10
37276;DHT22;23166;51.150;21.620;2022-12-29T15:08:21;5.70;59.70
37276;DHT22;23166;51.150;21.620;2022-12-29T15:13:33;5.70;29.40
37276;DHT22;23166;51.150;21.620;2022-12-29T15:15:53;5.80;43.30
37276;DHT22;23166;51.150;21.620;2022-12-29T15:18:28;5.80;29.70
37276;DHT22;23166;51.150;21.620;2022-12-29T15:20:57;5.80;40.60
37276;DHT22;23166;51.150;21.620;2022-12-29T15:23:25;5.80;26.60
37276;DHT22;23166;51.150;21.620;2022-12-29T15:26:00;5.70;29.70
37276;DHT22;23166;51.150;21.620;2022-12-29T15:28:26;5.80;31.60
37276;DHT22;23166;51.150;21.620;2022-12-29T15:30:55;5.70;21.00
37276;DHT22;23166;51.150;21.620;2022-12-29T15:33:24;5.70;30.30
37276;DHT22;23166;51.150;21.620;2022-12-29T15:35:53;5.70;44.30
37276;DHT22;23166;51.150;21.620;2022-12-29T15:38:25;5.70;14.70
37276;DHT22;23166;51.150;21.620;2022-12-29T15:40:54;5.70;34.40
37276;DHT22;23166;51.150;21.620;2022-12-29T15:46:10;5.70;48.00
37276;DHT22;23166;51.150;21.620;2022-12-29T15:48:38;5.70;34.10
37276;DHT22;23166;51.150;21.620;2022-12-29T15:51:39;5.60;36.90
37276;DHT22;23166;51.150;21.620;2022-12-29T15:53:41;5.50;47.90
37276;DHT22;23166;51.150;21.620;2022-12-29T15:56:10;5.40;61.20
37276;DHT22;23166;51.150;21.620;2022-12-29T15:58:41;5.30;63.50
37276;DHT22;23166;51.150;21.620;2022-12-29T16:03:45;5.10;69.00
37276;DHT22;23166;51.150;21.620;2022-12-29T16:09:05;5.00;72.20
37276;DHT22;23166;51.150;21.620;2022-12-29T16:11:40;5.00;66.00
37276;DHT22;23166;51.150;21.620;2022-12-29T16:14:17;4.90;73.90
37276;DHT22;23166;51.150;21.620;2022-12-29T16:16:45;4.90;77.30
37276;DHT22;23166;51.150;21.620;2022-12-29T16:19:28;4.80;72.30
37276;DHT22;23166;51.150;21.620;2022-12-29T16:21:55;4.80;82.90
37276;DHT22;23166;51.150;21.620;2022-12-29T16:24:25;4.80;84.60
37276;DHT22;23166;51.150;21.620;2022-12-29T16:27:06;4.80;80.30
37276;DHT22;23166;51.150;21.620;2022-12-29T16:29:31;4.80;73.00
37276;DHT22;23166;51.150;21.620;2022-12-29T16:31:58;4.80;81.90
37276;DHT22;23166;51.150;21.620;2022-12-29T16:37:04;4.90;82.70
37276;DHT22;23166;51.150;21.620;2022-12-29T16:39:35;4.90;78.80
37276;DHT22;23166;51.150;21.620;2022-12-29T16:50:43;4.80;76.90
37276;DHT22;23166;51.150;21.620;2022-12-29T16:53:36;4.70;74.10
37276;DHT22;23166;51.150;21.620;2022-12-29T16:56:08;4.70;71.70
37276;DHT22;23166;51.150;21.620;2022-12-29T16:58:34;4.60;83.00
37276;DHT22;23166;51.150;21.620;2022-12-29T17:01:03;4.60;73.00
37276;DHT22;23166;51.150;21.620;2022-12-29T17:03:34;4.60;79.00
37276;DHT22;23166;51.150;21.620;2022-12-29T17:06:02;4.60;77.40
37276;DHT22;23166;51.150;21.620;2022-12-29T17:08:29;4.60;80.80
37276;DHT22;23166;51.150;21.620;2022-12-29T17:10:56;4.50;84.20
37276;DHT22;23166;51.150;21.620;2022-12-29T17:13:41;4.50;85.30
37276;DHT22;23166;51.150;21.620;2022-12-29T17:16:10;4.50;87.50
37276;DHT22;23166;51.150;21.620;2022-12-29T17:18:37;4.50;80.40
37276;DHT22;23166;51.150;21.620;2022-12-29T17:21:04;4.50;79.90
37276;DHT22;23166;51.150;21.620;2022-12-29T17:23:31;4.50;81.50
37276;DHT22;23166;51.150;21.620;2022-12-29T17:25:59;4.60;84.90
37276;DHT22;23166;51.150;21.620;2022-12-29T17:28:29;4.60;81.10
37276;DHT22;23166;51.150;21.620;2022-12-29T17:31:05;4.70;77.00
37276;DHT22;23166;51.150;21.620;2022-12-29T17:33:37;4.70;59.90
37276;DHT22;23166;51.150;21.620;2022-12-29T17:36:04;4.70;84.70
37276;DHT22;23166;51.150;21.620;2022-12-29T17:38:37;4.60;83.50
37276;DHT22;23166;51.150;21.620;2022-12-29T17:41:01;4.60;81.60
37276;DHT22;23166;51.150;21.620;2022-12-29T17:43:27;4.50;73.70
37276;DHT22;23166;51.150;21.620;2022-12-29T17:45:58;4.40;84.60
37276;DHT22;23166;51.150;21.620;2022-12-29T17:48:25;4.30;80.40
37276;DHT22;23166;51.150;21.620;2022-12-29T17:50:53;4.30;86.30
37276;DHT22;23166;51.150;21.620;2022-12-29T17:53:28;4.20;91.30
37276;DHT22;23166;51.150;21.620;2022-12-29T17:55:52;4.20;93.30
37276;DHT22;23166;51.150;21.620;2022-12-29T17:58:20;4.10;93.20
37276;DHT22;23166;51.150;21.620;2022-12-29T18:00:51;4.10;94.20
37276;DHT22;23166;51.150;21.620;2022-12-29T18:03:27;4.10;95.40
37276;DHT22;23166;51.150;21.620;2022-12-29T18:05:54;4.20;93.80
37276;DHT22;23166;51.150;21.620;2022-12-29T18:08:21;4.20;93.70
37276;DHT22;23166;51.150;21.620;2022-12-29T18:10:47;4.30;93.60
37276;DHT22;23166;51.150;21.620;2022-12-29T18:13:23;4.30;90.40
37276;DHT22;23166;51.150;21.620;2022-12-29T18:15:51;4.40;88.50
37276;DHT22;23166;51.150;21.620;2022-12-29T18:18:20;4.50;85.40
37276;DHT22;23166;51.150;21.620;2022-12-29T18:20:48;4.50;83.60
37276;DHT22;23166;51.150;21.620;2022-12-29T18:23:32;4.60;84.10
37276;DHT22;23166;51.150;21.620;2022-12-29T18:28:31;4.60;88.80
37276;DHT22;23166;51.150;21.620;2022-12-29T18:30:59;4.60;83.40
37276;DHT22;23166;51.150;21.620;2022-12-29T18:33:26;4.60;79.80
37276;DHT22;23166;51.150;21.620;2022-12-29T18:36:01;4.60;89.10
37276;DHT22;23166;51.150;21.620;2022-12-29T18:38:28;4.70;70.10
37276;DHT22;23166;51.150;21.620;2022-12-29T18:40:55;4.70;84.40
37276;DHT22;23166;51.150;21.620;2022-12-29T18:43:22;4.70;87.30
37276;DHT22;23166;51.150;21.620;2022-12-29T18:45:49;4.60;86.60
37276;DHT22;23166;51.150;21.620;2022-12-29T18:48:18;4.60;85.30
37276;DHT22;23166;51.150;21.620;2022-12-29T18:50:46;4.60;90.70